Airfield :
LOGIN :

Register | Disclaimer

   EN    FR    IT 

 










Legend :    VFR   Marginal VFR   IFR   Intensive IFR   Very Intensive IFR
Visi :
Ceiling :
>= 8 km
>= 3000ft
5 to 8 km
1000 to 3000 ft
1500m to 5 km
500 to 1000 ft
800 to 1500m
200 to 500 ft
< 800m
< 200 ft
Symbols :   Thunderstorms  Fog  Heavy snow  Heavy precipitations  Wind > 20 kt
SIGMETs :     Misc.  Thunderstorms  Icing  Turbulence  Mountain Waves  Volcanic Ashes






- Airport Elevation : 404 ft
- IATA code : WRO


EPWR - Wroclaw

CURRENT METAR :
  • 201630Z 10011KT CAVOK 07/05 Q1017

EXPIRED METARs :
  • 201600Z 08009KT CAVOK 08/05 Q1016
  • 201530Z 08009KT CAVOK 09/05 Q1016
  • 201500Z 08005KT CAVOK 09/06 Q1016
  • 201430Z 04005KT 9999 FEW049 10/06 Q1016
  • 201400Z 05004KT 9999 FEW047 11/07 Q1017

TAF TAF EPWR
Valid from the 20 at 15:00 until the 21 at 15:00 UTC


201430Z 2015/2115 04010KT CAVOK
BECMG 2015/2017 10007KT
BECMG 2017/2019 3000 BR BKN005
TEMPO 2019/2109 0500 DZ FG OVC001
TEMPO 2109/2115 6000 RA SCT005 BKN015



MET'MAP, your aeronautical weather chart ! - Copyright ORBIFLY December 2007 - Disclaimer

ORBIFLY MET'MAP TEAM :

Programming & Development : Alexandra Zaïnal
Concept & Development : Baudouin d'Aumeries
Co-Development & Prog : Marc-Olivier Méhu
Technical & hardware support : Manuel Goepfert

Contact : metmap@orbifly.com




SOURCES & CREDITS :

   NOAA